Time;durP1;ratioP1;P1;durP2;ratioP2;P2;SDS_P1;SDS_P2;PMS_P1;PMS_P2;Temp;Humidity;BMP_temperature;BMP_pressure;BME280_temperature;BME280_humidity;BME280_pressure;Samples;Min_cycle;Max_cycle;Signal;HPM_P1;HPM_P2
2021/04/22 00:01:00;;;;;;;9.35;0.60;;;5.10;99.90;;;;;;5073325;28;20070;-75
2021/04/22 00:03:25;;;;;;;6.50;0.55;;;5.10;99.90;;;;;;5073330;28;20031;-75
2021/04/22 00:05:51;;;;;;;13.70;1.27;;;5.20;99.90;;;;;;5072836;28;20056;-75
2021/04/22 00:08:17;;;;;;;11.85;1.08;;;5.20;99.90;;;;;;5073361;28;20024;-75
2021/04/22 00:10:49;;;;;;;16.50;1.33;;;5.10;99.90;;;;;;5072103;28;20021;-77
2021/04/22 00:13:18;;;;;;;8.35;0.57;;;5.10;99.90;;;;;;5072161;28;20025;-75
2021/04/22 00:15:44;;;;;;;6.72;0.17;;;5.10;99.90;;;;;;5072381;28;20028;-75
2021/04/22 00:18:10;;;;;;;13.75;0.95;;;5.10;99.90;;;;;;5073909;28;20116;-74
2021/04/22 00:20:39;;;;;;;11.75;0.47;;;5.10;99.90;;;;;;5073237;28;20051;-74
2021/04/22 00:23:05;;;;;;;;;;;5.10;99.90;;;;;;5072353;28;20024;-75
2021/04/22 00:25:31;;;;;;;16.40;0.38;;;5.20;99.90;;;;;;5087649;22;19919;-75
2021/04/22 00:27:59;;;;;;;11.50;0.95;;;5.20;99.90;;;;;;5093095;28;20032;-74
2021/04/22 00:30:25;;;;;;;5.88;0.40;;;5.20;99.90;;;;;;5093721;28;20020;-75
2021/04/22 00:32:50;;;;;;;13.43;1.17;;;5.20;99.90;;;;;;5093876;28;20020;-75
2021/04/22 00:35:16;;;;;;;8.98;0.73;;;5.20;99.90;;;;;;5079438;28;20116;-74
2021/04/22 00:37:41;;;;;;;13.27;1.35;;;5.20;99.90;;;;;;5078753;28;20091;-75
2021/04/22 00:40:17;;;;;;;15.95;1.15;;;5.20;99.90;;;;;;5078910;28;20375;-75
2021/04/22 00:42:43;;;;;;;13.57;1.20;;;5.30;99.90;;;;;;5078883;28;20384;-75
2021/04/22 00:45:10;;;;;;;7.43;0.70;;;5.30;99.90;;;;;;5096758;28;20077;-74
2021/04/22 00:47:36;;;;;;;10.57;1.05;;;5.30;99.90;;;;;;5096827;28;20025;-76
2021/04/22 00:50:04;;;;;;;11.63;0.75;;;5.30;99.90;;;;;;5096883;28;20380;-74
2021/04/22 00:52:30;;;;;;;19.25;1.27;;;5.20;99.90;;;;;;5096876;28;20024;-75
2021/04/22 00:54:56;;;;;;;10.45;1.23;;;5.30;99.90;;;;;;5096837;28;20043;-75
2021/04/22 00:57:21;;;;;;;8.23;0.47;;;5.30;99.90;;;;;;5096167;28;20119;-75
2021/04/22 00:59:47;;;;;;;11.55;1.42;;;5.30;99.90;;;;;;5096846;28;20036;-74
2021/04/22 01:02:16;;;;;;;8.88;0.40;;;5.30;99.90;;;;;;5097146;28;20099;-76
2021/04/22 01:04:46;;;;;;;6.32;0.40;;;5.20;99.90;;;;;;5078491;28;20028;-75
2021/04/22 01:07:15;;;;;;;8.60;0.50;;;5.30;99.90;;;;;;5096622;28;20020;-75
2021/04/22 01:09:41;;;;;;;12.38;0.93;;;5.30;99.90;;;;;;5109693;22;20480;-76
2021/04/22 01:12:10;;;;;;;6.72;0.50;;;5.20;99.90;;;;;;5097018;28;20020;-75
2021/04/22 01:14:36;;;;;;;14.25;0.93;;;5.20;99.90;;;;;;5097151;28;20024;-74
2021/04/22 01:17:02;;;;;;;12.55;1.08;;;5.20;99.90;;;;;;5078063;28;20038;-74
2021/04/22 01:19:27;;;;;;;13.25;1.13;;;5.20;99.90;;;;;;5096683;28;20558;-75
2021/04/22 01:21:53;;;;;;;12.32;1.33;;;5.30;99.90;;;;;;5078686;28;20059;-74
2021/04/22 01:24:19;;;;;;;11.20;1.23;;;5.20;99.90;;;;;;5095797;28;20020;-74
2021/04/22 01:27:22;;;;;;;5.18;1.33;;;5.30;99.90;;;;;;5096192;28;20043;-74
2021/04/22 01:30:15;;;;;;;10.88;1.00;;;5.20;99.90;;;;;;5117483;22;20057;-74
2021/04/22 01:32:47;;;;;;;19.33;2.15;;;5.30;99.90;;;;;;5073593;28;20044;-74
2021/04/22 01:35:16;;;;;;;4.18;0.63;;;5.20;99.90;;;;;;5075482;28;20016;-76
2021/04/22 01:37:42;;;;;;;12.02;1.25;;;5.10;99.90;;;;;;5058337;28;20393;-76
2021/04/22 01:40:09;;;;;;;10.60;1.60;;;5.00;99.90;;;;;;5109304;22;20048;-77
2021/04/22 01:42:35;;;;;;;10.07;0.68;;;4.90;99.90;;;;;;5096554;28;20035;-74
2021/04/22 01:45:00;;;;;;;8.20;0.68;;;4.80;99.90;;;;;;5094231;28;20032;-75
2021/04/22 01:47:26;;;;;;;9.15;0.52;;;4.70;99.90;;;;;;5077387;28;20460;-76
2021/04/22 01:49:52;;;;;;;19.50;1.60;;;4.60;99.90;;;;;;5078626;28;20021;-76
2021/04/22 01:52:17;;;;;;;11.13;0.90;;;4.50;99.90;;;;;;5077723;28;20024;-75
2021/04/22 01:54:43;;;;;;;12.68;0.98;;;4.40;99.90;;;;;;5095796;28;20508;-76
2021/04/22 01:57:09;;;;;;;10.35;1.10;;;4.30;99.90;;;;;;5118185;22;20082;-75
2021/04/22 01:59:34;;;;;;;11.55;1.08;;;4.30;99.90;;;;;;5075602;28;20013;-76
2021/04/22 02:02:00;;;;;;;6.72;0.50;;;4.20;99.90;;;;;;5057230;28;20497;-76
2021/04/22 02:04:25;;;;;;;8.65;1.67;;;4.20;99.90;;;;;;5074885;28;20057;-76
2021/04/22 02:06:51;;;;;;;11.40;1.05;;;4.10;99.90;;;;;;5057164;28;20405;-76
2021/04/22 02:09:17;;;;;;;9.57;1.38;;;4.00;99.90;;;;;;5075285;28;20020;-76
2021/04/22 02:11:43;;;;;;;18.55;1.45;;;4.00;99.90;;;;;;5056705;28;20090;-76
2021/04/22 02:14:08;;;;;;;10.52;0.98;;;4.10;99.90;;;;;;5074997;28;20021;-76
2021/04/22 02:16:34;;;;;;;8.50;0.45;;;4.10;99.90;;;;;;5075280;28;20071;-76
2021/04/22 02:18:59;;;;;;;12.82;0.90;;;4.10;99.90;;;;;;5074637;28;20055;-76
2021/04/22 02:21:25;;;;;;;9.85;1.15;;;4.20;99.90;;;;;;5074800;28;20031;-76
2021/04/22 02:23:50;;;;;;;15.48;1.25;;;4.30;99.90;;;;;;5074896;28;20028;-76
2021/04/22 02:26:16;;;;;;;17.52;1.90;;;4.40;99.90;;;;;;5074628;28;20493;-76
2021/04/22 02:28:42;;;;;;;9.93;1.05;;;4.40;99.90;;;;;;5074930;28;20485;-76
2021/04/22 02:31:07;;;;;;;16.02;1.67;;;4.50;99.90;;;;;;5057141;28;20020;-76
2021/04/22 02:33:33;;;;;;;11.93;0.93;;;4.50;99.90;;;;;;5074694;28;20028;-76
2021/04/22 02:35:58;;;;;;;12.85;2.17;;;4.60;99.90;;;;;;5056728;28;20024;-76
2021/04/22 02:38:24;;;;;;;9.18;0.85;;;4.60;99.90;;;;;;5056811;28;20020;-76
2021/04/22 02:40:49;;;;;;;5.53;0.45;;;4.70;99.90;;;;;;5074651;28;20035;-76
2021/04/22 02:43:18;;;;;;;12.57;0.75;;;4.70;99.90;;;;;;5056744;28;20111;-76
2021/04/22 02:45:48;;;;;;;7.43;0.68;;;4.70;99.90;;;;;;5074174;28;20032;-76
2021/04/22 02:48:14;;;;;;;10.93;1.83;;;4.70;99.90;;;;;;5074433;28;20499;-76
2021/04/22 02:50:44;;;;;;;10.77;1.83;;;4.70;99.90;;;;;;5074546;28;20017;-77
2021/04/22 02:53:10;;;;;;;10.10;1.70;;;5.10;99.90;;;;;;5075125;28;20009;-77
2021/04/22 02:55:36;;;;;;;8.27;0.50;;;4.60;99.90;;;;;;5056679;28;20016;-77
2021/04/22 02:58:02;;;;;;;10.75;0.85;;;4.60;99.90;;;;;;5074647;28;20076;-78
2021/04/22 03:00:29;;;;;;;10.48;0.95;;;4.60;99.90;;;;;;5056862;28;20039;-77
2021/04/22 03:02:54;;;;;;;8.85;1.58;;;4.60;99.90;;;;;;5056895;28;20023;-77
2021/04/22 03:05:20;;;;;;;15.40;0.63;;;4.60;99.90;;;;;;5074297;28;20392;-77
2021/04/22 03:07:46;;;;;;;6.55;1.23;;;4.60;99.90;;;;;;5074051;28;20023;-78
2021/04/22 03:10:15;;;;;;;9.23;0.95;;;4.70;99.90;;;;;;5055848;28;20552;-78
2021/04/22 03:12:41;;;;;;;4.57;0.77;;;4.70;99.90;;;;;;5074257;28;20021;-77
2021/04/22 03:15:07;;;;;;;10.55;1.33;;;4.70;99.90;;;;;;5056239;28;20047;-77
2021/04/22 03:17:35;;;;;;;8.10;0.50;;;4.70;99.90;;;;;;5055920;28;20079;-78
2021/04/22 03:20:02;;;;;;;14.23;1.48;;;4.70;99.90;;;;;;5073552;28;20020;-78
2021/04/22 03:22:28;;;;;;;13.55;1.05;;;4.70;99.90;;;;;;5074430;28;20025;-78
2021/04/22 03:24:53;;;;;;;7.88;0.60;;;4.70;99.90;;;;;;5074394;28;20024;-78
2021/04/22 03:27:19;;;;;;;10.50;0.73;;;4.70;99.90;;;;;;5073722;28;20021;-78
2021/04/22 03:29:45;;;;;;;10.65;0.63;;;4.70;99.90;;;;;;5073942;28;20111;-74
2021/04/22 03:32:10;;;;;;;8.88;0.68;;;4.70;99.90;;;;;;5055839;28;20039;-74
2021/04/22 03:34:36;;;;;;;12.45;1.00;;;4.70;99.90;;;;;;5073842;28;20024;-75
2021/04/22 03:37:02;;;;;;;26.30;1.75;;;4.80;99.90;;;;;;5055741;28;20538;-75
2021/04/22 03:39:27;;;;;;;7.70;1.23;;;4.80;99.90;;;;;;5073580;28;20039;-75
2021/04/22 03:41:53;;;;;;;9.68;1.30;;;4.90;99.90;;;;;;5074375;28;20047;-75
2021/04/22 03:44:19;;;;;;;11.45;0.70;;;4.90;99.90;;;;;;5074176;28;20029;-75
2021/04/22 03:46:47;;;;;;;9.27;0.93;;;4.90;99.90;;;;;;5073352;28;20028;-74
2021/04/22 03:49:13;;;;;;;12.25;0.47;;;5.00;99.90;;;;;;5055736;28;20017;-74
2021/04/22 03:51:38;;;;;;;15.73;0.50;;;5.00;99.90;;;;;;5055531;28;20385;-75
2021/04/22 03:54:04;;;;;;;6.80;0.55;;;5.00;99.90;;;;;;5073855;28;20051;-75
2021/04/22 03:56:30;;;;;;;11.65;0.65;;;5.00;99.90;;;;;;5055282;28;20082;-75
2021/04/22 03:58:55;;;;;;;8.60;0.95;;;5.00;99.90;;;;;;5073562;28;20020;-75
2021/04/22 04:01:21;;;;;;;7.32;0.52;;;5.00;99.90;;;;;;5073535;28;20037;-74
2021/04/22 04:03:46;;;;;;;9.48;1.50;;;5.00;99.90;;;;;;5073428;28;20029;-74
2021/04/22 04:06:12;;;;;;;5.97;0.47;;;5.00;99.90;;;;;;5055283;28;20021;-75
2021/04/22 04:08:38;;;;;;;9.85;0.90;;;5.00;99.90;;;;;;5075519;28;20354;-74
2021/04/22 04:11:03;;;;;;;4.22;0.20;;;5.10;99.90;;;;;;5077442;28;20069;-74
2021/04/22 04:13:29;;;;;;;13.68;1.27;;;5.10;99.90;;;;;;5059239;28;20012;-74
2021/04/22 04:15:54;;;;;;;16.85;0.95;;;5.20;99.90;;;;;;5077141;28;20029;-74
2021/04/22 04:18:21;;;;;;;14.77;0.90;;;5.20;99.90;;;;;;5076871;28;20099;-74
2021/04/22 04:20:47;;;;;;;6.57;0.30;;;5.30;99.90;;;;;;5077039;28;20031;-74
2021/04/22 04:23:13;;;;;;;12.13;0.50;;;5.30;99.90;;;;;;5077257;28;20095;-74
2021/04/22 04:25:38;;;;;;;5.50;0.35;;;5.40;99.90;;;;;;5076991;28;20028;-74
2021/04/22 04:28:04;;;;;;;10.80;0.20;;;5.40;99.90;;;;;;5058924;28;20469;-74
2021/04/22 04:30:31;;;;;;;2.83;0.20;;;5.40;99.90;;;;;;5058820;28;20021;-74
2021/04/22 04:32:57;;;;;;;5.30;0.43;;;5.40;99.90;;;;;;5077451;28;20046;-74
2021/04/22 04:35:22;;;;;;;6.18;1.00;;;5.30;99.90;;;;;;5076794;28;20024;-74
2021/04/22 04:37:48;;;;;;;6.28;0.50;;;5.30;99.90;;;;;;5077244;28;20473;-74
2021/04/22 04:40:15;;;;;;;9.65;0.30;;;5.30;99.90;;;;;;5077072;28;20035;-74
2021/04/22 04:42:41;;;;;;;8.48;0.68;;;5.30;99.90;;;;;;5076691;28;20559;-74
2021/04/22 04:45:12;;;;;;;8.50;0.28;;;5.40;99.90;;;;;;5058183;28;20176;-74
2021/04/22 04:47:38;;;;;;;12.75;0.28;;;5.40;99.90;;;;;;5057981;28;20029;-74
2021/04/22 04:50:08;;;;;;;13.38;0.63;;;5.40;99.90;;;;;;5058278;28;20025;-74
2021/04/22 04:52:34;;;;;;;8.25;0.10;;;5.40;99.90;;;;;;5058482;28;20389;-74
2021/04/22 04:55:00;;;;;;;9.70;1.40;;;5.40;99.90;;;;;;5075946;28;20024;-74
2021/04/22 04:57:25;;;;;;;7.15;0.13;;;5.40;99.90;;;;;;5075287;28;20036;-74
2021/04/22 04:59:51;;;;;;;6.93;0.55;;;5.50;99.90;;;;;;5076630;28;20029;-74
2021/04/22 05:02:17;;;;;;;4.22;1.08;;;5.50;99.90;;;;;;5058096;28;20028;-73
2021/04/22 05:04:42;;;;;;;7.18;0.30;;;5.50;99.90;;;;;;5074772;28;20035;-74
2021/04/22 05:07:08;;;;;;;9.02;0.28;;;5.50;99.90;;;;;;5058450;28;20036;-74
2021/04/22 05:09:34;;;;;;;7.35;0.38;;;5.60;99.90;;;;;;5057797;28;20013;-74
2021/04/22 05:11:59;;;;;;;6.10;0.65;;;5.60;99.90;;;;;;5076238;28;20029;-74
2021/04/22 05:14:25;;;;;;;7.63;0.20;;;5.60;99.90;;;;;;5075484;28;20043;-74
2021/04/22 05:16:52;;;;;;;5.38;0.63;;;5.70;99.90;;;;;;5057464;28;20024;-74
2021/04/22 05:19:17;;;;;;;7.38;0.30;;;5.70;99.90;;;;;;5075646;28;20029;-74
2021/04/22 05:21:43;;;;;;;6.20;0.52;;;5.70;99.90;;;;;;5076850;28;20081;-73
2021/04/22 05:24:09;;;;;;;4.30;0.20;;;5.80;99.90;;;;;;5076015;28;20017;-74
2021/04/22 05:26:34;;;;;;;3.47;0.10;;;5.80;99.90;;;;;;5078282;28;20174;-74
2021/04/22 05:29:00;;;;;;;6.50;0.00;;;5.90;99.90;;;;;;5074657;28;20052;-74
2021/04/22 05:31:28;;;;;;;7.20;0.38;;;6.00;99.90;;;;;;5070399;22;20050;-73
2021/04/22 05:33:54;;;;;;;3.22;0.45;;;5.90;99.90;;;;;;5076170;28;20028;-75
2021/04/22 05:36:20;;;;;;;4.95;0.10;;;6.10;99.90;;;;;;5075056;28;20099;-74
2021/04/22 05:38:47;;;;;;;10.10;0.68;;;7.60;99.50;;;;;;5074260;28;20025;-77
2021/04/22 05:41:13;;;;;;;6.47;0.30;;;6.30;99.90;;;;;;5077088;28;20473;-79
2021/04/22 05:43:39;;;;;;;7.13;0.28;;;6.40;99.40;;;;;;5074509;28;20119;-79
2021/04/22 05:49:36;;;;;;;5.97;0.52;;;4.60;98.60;;;;;;5064628;28;20388;-76
2021/04/22 05:52:02;;;;;;;9.30;0.65;;;6.50;97.60;;;;;;5096365;28;20020;-79
2021/04/22 05:54:27;;;;;;;9.82;0.68;;;6.70;98.00;;;;;;5077182;28;20488;-77
2021/04/22 05:56:53;;;;;;;7.47;0.00;;;6.80;96.50;;;;;;5095000;28;20074;-76
2021/04/22 05:59:21;;;;;;;9.80;0.45;;;6.80;96.90;;;;;;5095104;28;20061;-76
2021/04/22 06:01:50;;;;;;;3.40;0.13;;;7.00;95.30;;;;;;5077117;28;20020;-76
2021/04/22 06:04:15;;;;;;;10.82;0.88;;;7.00;95.30;;;;;;5095917;28;20032;-77
2021/04/22 06:06:41;;;;;;;5.22;0.80;;;7.10;97.40;;;;;;5096872;28;20020;-78
2021/04/22 06:09:06;;;;;;;8.75;0.52;;;7.10;95.90;;;;;;5095629;28;20050;-77
2021/04/22 06:11:32;;;;;;;4.30;0.35;;;7.20;95.20;;;;;;5080976;28;20020;-80
2021/04/22 06:13:58;;;;;;;8.60;0.60;;;7.30;94.20;;;;;;5096843;28;20522;-79
2021/04/22 06:16:25;;;;;;;6.28;0.73;;;7.30;94.30;;;;;;5095538;28;20092;-76
2021/04/22 06:18:51;;;;;;;5.43;0.57;;;7.40;93.20;;;;;;5094987;28;20020;-74
2021/04/22 06:21:16;;;;;;;3.42;0.30;;;7.40;91.80;;;;;;5095619;28;20030;-75
2021/04/22 06:23:42;;;;;;;9.55;0.57;;;7.50;91.10;;;;;;5076029;28;20020;-77
2021/04/22 06:26:07;;;;;;;3.75;0.57;;;7.50;89.50;;;;;;5103901;22;20049;-77
2021/04/22 06:28:33;;;;;;;6.40;0.20;;;7.40;90.80;;;;;;5073461;28;20481;-75
2021/04/22 06:30:58;;;;;;;8.55;1.23;;;7.60;90.80;;;;;;5075679;28;20021;-75
2021/04/22 06:33:24;;;;;;;5.07;0.20;;;7.70;90.10;;;;;;5056902;28;20017;-75
2021/04/22 06:35:50;;;;;;;6.07;0.57;;;7.80;88.80;;;;;;5074740;28;20456;-73
2021/04/22 06:38:15;;;;;;;5.75;0.52;;;7.80;88.00;;;;;;5074926;28;20134;-75
2021/04/22 06:40:41;;;;;;;5.50;0.30;;;7.80;88.40;;;;;;5049569;28;20043;-74
2021/04/22 06:43:10;;;;;;;7.25;0.20;;;7.90;88.40;;;;;;5103012;23;20048;-73
2021/04/22 06:45:35;;;;;;;16.70;1.00;;;7.90;88.40;;;;;;5095037;28;20021;-73
2021/04/22 06:48:01;;;;;;;8.35;0.43;;;8.00;90.20;;;;;;5095535;28;20578;-75
2021/04/22 06:50:26;;;;;;;5.85;0.60;;;8.10;84.60;;;;;;5095492;28;20024;-73
2021/04/22 06:52:53;;;;;;;5.35;0.15;;;8.10;86.00;;;;;;5095891;28;20027;-74
2021/04/22 06:55:22;;;;;;;6.45;0.80;;;8.20;81.30;;;;;;5084320;22;20040;-73
2021/04/22 06:57:49;;;;;;;5.60;0.10;;;8.20;84.80;;;;;;5072007;22;20163;-74
2021/04/22 07:00:19;;;;;;;5.75;0.15;;;8.30;84.20;;;;;;5093213;22;20086;-73
2021/04/22 07:02:48;;;;;;;3.40;0.00;;;8.40;82.00;;;;;;5095388;28;20081;-73
2021/04/22 07:05:17;;;;;;;10.10;0.32;;;8.60;79.70;;;;;;5107813;22;20043;-73
2021/04/22 07:07:43;;;;;;;8.68;0.73;;;8.60;79.50;;;;;;5094823;28;20026;-74
2021/04/22 07:10:10;;;;;;;7.32;0.85;;;8.70;79.80;;;;;;5094736;28;20052;-73
2021/04/22 07:12:35;;;;;;;8.30;0.68;;;8.80;78.10;;;;;;5094940;28;20469;-75
2021/04/22 07:15:02;;;;;;;5.40;0.65;;;8.90;77.40;;;;;;5107891;22;20047;-74
2021/04/22 07:17:27;;;;;;;10.05;1.95;;;9.00;77.20;;;;;;5094359;28;20016;-76
2021/04/22 07:19:56;;;;;;;7.07;0.20;;;8.90;75.70;;;;;;5076950;28;20112;-75
2021/04/22 07:22:23;;;;;;;7.55;0.28;;;8.90;75.60;;;;;;5077391;28;20028;-76
2021/04/22 07:24:49;;;;;;;6.70;0.10;;;9.10;77.50;;;;;;5077637;28;20024;-75
2021/04/22 07:27:15;;;;;;;5.13;0.85;;;9.10;73.50;;;;;;5094754;28;20026;-75
2021/04/22 07:29:44;;;;;;;5.18;0.03;;;9.20;75.40;;;;;;5076988;28;20024;-74
2021/04/22 07:32:14;;;;;;;5.40;0.10;;;9.20;74.60;;;;;;5107997;22;20048;-74
2021/04/22 07:34:39;;;;;;;8.90;0.50;;;9.20;72.90;;;;;;5077380;28;20430;-75
2021/04/22 07:37:07;;;;;;;10.68;0.60;;;9.10;71.80;;;;;;5076528;28;20024;-74
2021/04/22 07:39:33;;;;;;;2.00;0.00;;;9.10;72.40;;;;;;5094013;28;20024;-74
2021/04/22 07:41:59;;;;;;;9.68;0.63;;;9.10;70.40;;;;;;5076650;28;20571;-74
2021/04/22 07:44:25;;;;;;;6.68;0.40;;;9.00;72.50;;;;;;5076973;22;20041;-74
2021/04/22 07:46:51;;;;;;;12.30;1.40;;;9.10;71.80;;;;;;5060584;28;20028;-73
2021/04/22 07:49:17;;;;;;;9.50;0.22;;;9.20;71.20;;;;;;5075029;22;20051;-73
2021/04/22 07:51:43;;;;;;;6.55;0.43;;;9.20;71.50;;;;;;5078535;28;20024;-74
2021/04/22 07:54:08;;;;;;;6.65;0.70;;;9.40;71.00;;;;;;5078705;28;20024;-74
2021/04/22 07:56:34;;;;;;;4.55;1.13;;;9.50;69.50;;;;;;5078516;28;20020;-73
2021/04/22 07:58:59;;;;;;;2.63;0.05;;;9.70;71.00;;;;;;5077536;28;20024;-73
2021/04/22 08:01:27;;;;;;;5.18;0.63;;;9.80;69.90;;;;;;5078343;28;20509;-75
2021/04/22 08:03:52;;;;;;;6.53;0.00;;;9.80;69.10;;;;;;5078068;28;20024;-75
2021/04/22 08:06:18;;;;;;;7.47;1.45;;;9.90;69.80;;;;;;5077861;28;20107;-73
2021/04/22 08:08:44;;;;;;;8.18;0.45;;;9.80;68.10;;;;;;5077994;28;20082;-74
2021/04/22 08:11:10;;;;;;;11.43;0.10;;;9.70;69.20;;;;;;5078360;28;20017;-73
2021/04/22 08:13:37;;;;;;;5.75;0.22;;;9.70;69.50;;;;;;5076867;28;20020;-75
2021/04/22 08:16:02;;;;;;;5.65;0.30;;;9.80;68.00;;;;;;5070851;22;20045;-73
2021/04/22 08:18:28;;;;;;;5.15;0.10;;;9.90;69.00;;;;;;5057712;28;20017;-73
2021/04/22 08:20:57;;;;;;;4.47;0.20;;;10.00;68.70;;;;;;5057578;28;20024;-74
2021/04/22 08:23:24;;;;;;;8.05;0.43;;;10.30;67.00;;;;;;5057195;28;20024;-73
2021/04/22 08:25:56;;;;;;;6.53;0.40;;;10.50;66.40;;;;;;5057553;28;20035;-72
2021/04/22 08:28:24;;;;;;;9.27;0.90;;;10.70;66.10;;;;;;5056960;28;20018;-72
2021/04/22 08:30:55;;;;;;;6.68;0.38;;;10.50;64.60;;;;;;5055804;28;20146;-74
2021/04/22 08:33:24;;;;;;;4.05;0.30;;;10.60;66.30;;;;;;5057193;28;20025;-75
2021/04/22 08:35:51;;;;;;;4.38;0.15;;;10.60;62.60;;;;;;5057315;28;20408;-73
2021/04/22 08:38:17;;;;;;;4.43;0.40;;;10.50;66.30;;;;;;5056069;28;20017;-74
2021/04/22 08:40:44;;;;;;;5.93;0.20;;;10.50;66.00;;;;;;5079329;22;20082;-75
2021/04/22 08:43:11;;;;;;;4.20;0.80;;;10.50;64.00;;;;;;5078885;28;20020;-75
2021/04/22 08:45:37;;;;;;;5.72;0.50;;;10.50;65.00;;;;;;5097528;28;20107;-74
2021/04/22 08:48:03;;;;;;;5.80;0.82;;;10.60;66.50;;;;;;5097513;28;20031;-76
2021/04/22 08:50:31;;;;;;;5.55;0.15;;;10.70;65.20;;;;;;5097157;28;20381;-75
2021/04/22 08:53:01;;;;;;;7.85;0.30;;;10.70;62.40;;;;;;5097154;28;20065;-78
2021/04/22 08:55:30;;;;;;;5.95;0.20;;;10.60;62.10;;;;;;5096448;28;20405;-73
2021/04/22 08:57:58;;;;;;;5.22;0.30;;;10.40;62.60;;;;;;5097445;28;20035;-74
2021/04/22 09:00:27;;;;;;;3.67;0.13;;;10.40;63.50;;;;;;5096745;28;20542;-74
2021/04/22 09:02:53;;;;;;;7.43;0.10;;;10.50;64.40;;;;;;5097713;28;20530;-76
2021/04/22 09:05:19;;;;;;;2.17;0.10;;;10.50;64.80;;;;;;5096698;28;20020;-78
2021/04/22 09:07:45;;;;;;;7.30;0.32;;;10.70;62.80;;;;;;5097168;28;20025;-77
2021/04/22 09:10:19;;;;;;;8.23;0.30;;;10.90;62.10;;;;;;5078240;28;20542;-78
2021/04/22 09:12:59;;;;;;;6.28;0.75;;;11.00;60.40;;;;;;5096731;28;20027;-78
2021/04/22 09:15:25;;;;;;;3.08;0.57;;;10.90;59.50;;;;;;5078728;28;20507;-78
2021/04/22 09:18:07;;;;;;;6.22;0.28;;;11.00;61.30;;;;;;5096299;28;20114;-77
2021/04/22 09:20:41;;;;;;;2.72;0.25;;;11.30;60.80;;;;;;5096121;28;20040;-75
2021/04/22 09:23:25;;;;;;;9.82;0.20;;;11.50;59.20;;;;;;5096123;28;20484;-74
2021/04/22 09:26:09;;;;;;;2.72;0.10;;;11.50;58.30;;;;;;5096397;28;20032;-75
2021/04/22 09:28:46;;;;;;;9.10;0.63;;;11.40;57.80;;;;;;5096885;28;20417;-74
2021/04/22 09:31:24;;;;;;;6.05;1.20;;;11.20;60.50;;;;;;5096066;28;20087;-78
2021/04/22 09:34:09;;;;;;;2.70;0.60;;;11.10;60.70;;;;;;5109381;22;20109;-78
2021/04/22 09:36:50;;;;;;;11.13;0.43;;;10.90;60.60;;;;;;5078319;28;20468;-75
2021/04/22 09:39:22;;;;;;;1.02;0.00;;;10.90;61.30;;;;;;5096263;28;20400;-76
2021/04/22 09:41:50;;;;;;;4.43;0.30;;;11.20;60.40;;;;;;5102688;22;20503;-74
2021/04/22 09:44:17;;;;;;;5.05;0.10;;;11.30;60.70;;;;;;5056591;28;20025;-74
2021/04/22 09:46:46;;;;;;;0.95;0.10;;;11.40;59.80;;;;;;5055710;28;20451;-74
2021/04/22 09:49:18;;;;;;;3.88;0.50;;;11.50;60.00;;;;;;5054910;28;20437;-77
2021/04/22 09:51:45;;;;;;;3.28;0.30;;;11.60;59.20;;;;;;5057674;28;20017;-75
2021/04/22 09:54:19;;;;;;;7.00;1.75;;;11.80;59.20;;;;;;5075625;28;20012;-75
2021/04/22 09:56:53;;;;;;;7.63;0.73;;;12.20;58.70;;;;;;5088706;22;20070;-77
2021/04/22 09:59:28;;;;;;;4.10;0.47;;;12.40;56.40;;;;;;5075232;28;20416;-76
2021/04/22 10:02:06;;;;;;;5.40;0.40;;;12.30;56.50;;;;;;5075680;28;20055;-74
2021/04/22 10:04:33;;;;;;;5.07;0.50;;;12.10;55.50;;;;;;5093977;22;20047;-77
2021/04/22 10:06:58;;;;;;;5.28;0.30;;;12.00;55.40;;;;;;5094884;28;20028;-78
2021/04/22 10:09:35;;;;;;;4.45;0.47;;;12.10;57.60;;;;;;5074308;28;20500;-78
2021/04/22 10:12:02;;;;;;;8.55;0.52;;;12.30;57.00;;;;;;5073765;28;20020;-78
2021/04/22 10:14:36;;;;;;;2.35;0.38;;;12.30;55.10;;;;;;5073986;28;20024;-78
2021/04/22 10:17:24;;;;;;;5.28;0.40;;;12.30;56.30;;;;;;5075175;28;20512;-78
2021/04/22 10:20:02;;;;;;;11.73;0.90;;;12.30;54.00;;;;;;5074930;28;20024;-78
2021/04/22 10:22:36;;;;;;;3.45;0.25;;;12.50;55.00;;;;;;5074422;28;20099;-78
2021/04/22 10:25:17;;;;;;;3.60;0.10;;;12.70;52.60;;;;;;5074464;28;20024;-78
2021/04/22 10:27:44;;;;;;;4.15;0.00;;;12.90;52.60;;;;;;5073594;28;20025;-78
2021/04/22 10:30:17;;;;;;;5.38;0.47;;;13.00;51.90;;;;;;5072919;28;20028;-77
2021/04/22 10:32:43;;;;;;;2.40;0.10;;;13.10;51.70;;;;;;5074211;28;20047;-78
2021/04/22 10:35:12;;;;;;;5.07;0.45;;;13.10;51.50;;;;;;5074657;28;20078;-77
2021/04/22 10:37:40;;;;;;;4.43;0.30;;;13.20;53.00;;;;;;5074898;28;20025;-77
2021/04/22 10:40:08;;;;;;;5.03;0.30;;;13.40;54.60;;;;;;5075291;28;20448;-76
2021/04/22 10:42:37;;;;;;;3.67;0.10;;;13.60;51.30;;;;;;5073381;28;20029;-74
2021/04/22 10:45:06;;;;;;;7.63;1.17;;;14.00;52.50;;;;;;5074409;28;20024;-73
2021/04/22 10:47:31;;;;;;;3.53;0.30;;;13.50;51.40;;;;;;5072652;28;20363;-77
2021/04/22 10:50:00;;;;;;;3.10;0.22;;;13.60;51.70;;;;;;5074532;28;20029;-76
2021/04/22 10:52:26;;;;;;;6.43;0.20;;;13.60;51.10;;;;;;5073352;28;20081;-75
2021/04/22 10:54:53;;;;;;;3.42;0.50;;;13.70;51.30;;;;;;5074248;28;20024;-78
2021/04/22 10:57:21;;;;;;;4.15;0.25;;;13.80;52.20;;;;;;5074079;28;20032;-74
2021/04/22 10:59:59;;;;;;;3.85;0.28;;;13.80;48.40;;;;;;5073742;28;20099;-76
2021/04/22 11:02:24;;;;;;;8.20;1.20;;;13.90;49.50;;;;;;5103014;22;20497;-75
2021/04/22 11:04:50;;;;;;;3.78;0.30;;;14.20;50.10;;;;;;5095339;28;20024;-78
2021/04/22 11:07:21;;;;;;;6.07;0.20;;;14.20;49.30;;;;;;5076378;28;20437;-76
2021/04/22 11:09:49;;;;;;;3.42;0.20;;;14.00;48.70;;;;;;5093856;28;20024;-73
2021/04/22 11:12:22;;;;;;;2.50;0.10;;;14.10;49.00;;;;;;5094530;28;20020;-77
2021/04/22 11:14:54;;;;;;;2.65;0.30;;;14.30;50.70;;;;;;5093886;28;20293;-76
2021/04/22 11:17:36;;;;;;;5.82;0.52;;;14.50;50.20;;;;;;5094253;28;20055;-76
2021/04/22 11:20:19;;;;;;;3.30;0.20;;;14.70;50.90;;;;;;5077016;28;20024;-78
2021/04/22 11:22:46;;;;;;;2.88;0.40;;;14.50;49.90;;;;;;5095060;28;20024;-74
2021/04/22 11:25:22;;;;;;;4.28;0.20;;;14.60;48.90;;;;;;5093481;28;20085;-74
2021/04/22 11:27:51;;;;;;;2.03;0.10;;;14.70;48.60;;;;;;5106992;22;20055;-74
2021/04/22 11:30:29;;;;;;;7.57;0.25;;;14.70;50.10;;;;;;5075667;28;20028;-77
2021/04/22 11:32:58;;;;;;;2.97;0.25;;;14.90;48.50;;;;;;5075771;28;20369;-75
2021/04/22 11:35:26;;;;;;;2.72;0.20;;;15.00;49.40;;;;;;5093826;28;20495;-74
2021/04/22 11:38:06;;;;;;;8.80;0.52;;;15.00;48.40;;;;;;5075944;28;20020;-74
2021/04/22 11:40:54;;;;;;;4.70;0.45;;;15.00;49.20;;;;;;5093678;28;20115;-74
2021/04/22 11:43:25;;;;;;;5.25;0.20;;;14.80;47.60;;;;;;5076445;28;20085;-77
2021/04/22 11:45:53;;;;;;;5.78;0.25;;;14.90;49.90;;;;;;5076227;28;20392;-74
2021/04/22 11:48:22;;;;;;;4.93;0.80;;;14.70;49.20;;;;;;5094306;28;20016;-77
2021/04/22 11:50:53;;;;;;;7.20;0.20;;;14.60;50.40;;;;;;5075775;28;20039;-75
2021/04/22 11:53:31;;;;;;;6.68;0.63;;;14.80;52.20;;;;;;5094225;28;20427;-75
2021/04/22 11:55:57;;;;;;;4.95;0.52;;;15.00;49.30;;;;;;5107478;22;20060;-77
2021/04/22 11:58:25;;;;;;;16.42;0.73;;;14.80;49.10;;;;;;5093670;28;20059;-77
2021/04/22 12:01:03;;;;;;;6.22;0.63;;;14.60;47.90;;;;;;5075534;28;20016;-75
2021/04/22 12:03:37;;;;;;;7.60;0.20;;;14.60;49.10;;;;;;5094686;28;20016;-76
2021/04/22 12:06:06;;;;;;;3.28;0.47;;;14.60;48.80;;;;;;5094492;28;20032;-74
2021/04/22 12:08:34;;;;;;;0.85;0.10;;;14.30;49.90;;;;;;5076011;28;20016;-77
2021/04/22 12:11:04;;;;;;;3.85;0.40;;;14.10;48.90;;;;;;5075507;28;20027;-75
2021/04/22 12:13:33;;;;;;;22.13;1.38;;;13.90;48.90;;;;;;5094527;28;20028;-76
2021/04/22 12:16:00;;;;;;;2.53;0.13;;;14.10;50.50;;;;;;5076471;28;20043;-75
2021/04/22 12:18:32;;;;;;;3.50;0.55;;;14.50;51.40;;;;;;5106724;22;20048;-77
2021/04/22 12:21:18;;;;;;;5.03;0.40;;;14.40;50.50;;;;;;5075920;28;20046;-78
2021/04/22 12:23:49;;;;;;;3.78;0.30;;;14.90;50.30;;;;;;5093076;28;20028;-75
2021/04/22 12:26:22;;;;;;;2.45;0.47;;;15.30;48.60;;;;;;5075145;28;20043;-78
2021/04/22 12:28:58;;;;;;;4.53;0.00;;;15.30;47.30;;;;;;5094818;28;20017;-78
2021/04/22 12:31:43;;;;;;;2.50;0.00;;;14.90;46.80;;;;;;5097699;28;20062;-75
2021/04/22 12:34:10;;;;;;;1.38;0.05;;;14.90;47.10;;;;;;5098432;28;20016;-78
2021/04/22 12:36:37;;;;;;;2.67;0.10;;;15.20;46.70;;;;;;5098145;28;20088;-75
2021/04/22 12:39:05;;;;;;;5.47;0.30;;;15.30;47.30;;;;;;5097114;28;20396;-77
2021/04/22 12:41:31;;;;;;;2.63;0.20;;;15.20;46.90;;;;;;5097658;28;20090;-77
2021/04/22 12:43:57;;;;;;;3.63;0.10;;;15.50;49.00;;;;;;5110045;22;20442;-76
2021/04/22 12:46:26;;;;;;;5.65;0.32;;;15.90;48.20;;;;;;5078850;28;20122;-74
2021/04/22 12:48:55;;;;;;;2.03;0.85;;;16.20;47.50;;;;;;5097110;28;20013;-75
2021/04/22 12:51:21;;;;;;;;;;;16.30;47.70;;;;;;5098098;28;20087;-77
2021/04/22 12:53:49;;;;;;;4.05;0.20;;;16.30;46.00;;;;;;5097531;28;19904;-76
2021/04/22 12:56:16;;;;;;;3.97;0.10;;;16.50;45.50;;;;;;5096475;28;20047;-75
2021/04/22 12:58:50;;;;;;;3.58;0.03;;;16.40;48.00;;;;;;5096529;28;20032;-75